« Back
NWS Peachtree City, Ga » Text Product » ATL Terminal Aerodrome Forecast


Printer-friendly Version
Current Version              Previous Versions:   1  2  3  4  5  6  7  8  9  

Terminal Aerodrome Forecast

705
FTUS42 KFFC 121742
TAFATL
TAF
KATL 121742Z 1218/1324 29007KT P6SM FEW150
     FM130100 32014G22KT P6SM SKC
     FM131700 33012KT P6SM SKC=

USA.gov is the U.S. government's official web portal to all federal, state and local government web resources and services.